Time;durP1;ratioP1;P1;durP2;ratioP2;P2;SDS_P1;SDS_P2;PMS_P1;PMS_P2;Temp;Humidity;BMP_temperature;BMP_pressure;BME280_temperature;BME280_humidity;BME280_pressure;Samples;Min_cycle;Max_cycle;Signal;HPM_P1;HPM_P2
2020/12/12 00:01:46;;;;;;;;;;;;;;;22.67;25.63;97057.88;5042243;28;665;-78
2020/12/12 00:04:12;;;;;;;;;;;;;;;22.66;25.54;97053.47;5008555;28;1273;-78
2020/12/12 00:06:37;;;;;;;;;;;;;;;22.66;25.27;97056.31;5008935;28;1939;-78
2020/12/12 00:09:03;;;;;;;;;;;;;;;22.04;26.22;97056.63;5008180;28;1265;-77
2020/12/12 00:11:28;;;;;;;;;;;;;;;21.35;27.47;97057.09;5041939;28;831;-78
2020/12/12 00:13:53;;;;;;;;;;;;;;;21.18;27.65;97054.47;5041295;28;686;-78
2020/12/12 00:16:19;;;;;;;;;;;;;;;21.62;26.96;97043.03;5041783;28;638;-78
2020/12/12 00:18:44;;;;;;;;;;;;;;;21.44;27.45;97048.63;5041214;28;638;-78
2020/12/12 00:21:13;;;;;;;;;;;;;;;21.57;27.27;97052.94;5040917;28;807;-78
2020/12/12 00:23:39;;;;;;;;;;;;;;;22.10;26.41;97043.41;5040755;28;849;-78
2020/12/12 00:26:05;;;;;;;;;;;;;;;22.36;25.97;97041.84;5041833;28;1969;-78
2020/12/12 00:28:31;;;;;;;;;;;;;;;22.66;25.38;97044.97;5040158;28;878;-78
2020/12/12 00:30:57;;;;;;;;;;;;;;;22.91;25.18;97038.19;5040801;28;810;-78
2020/12/12 00:33:23;;;;;;;;;;;;;;;21.98;26.30;97024.53;5040338;28;720;-77
2020/12/12 00:35:48;;;;;;;;;;;;;;;21.74;26.93;97030.78;5041020;28;1118;-78
2020/12/12 00:38:14;;;;;;;;;;;;;;;21.61;27.11;97030.13;5040780;28;841;-78
2020/12/12 00:40:39;;;;;;;;;;;;;;;21.51;27.33;97029.31;5041158;28;996;-78
2020/12/12 00:43:05;;;;;;;;;;;;;;;21.92;26.72;97006.59;5040874;28;690;-77
2020/12/12 00:45:30;;;;;;;;;;;;;;;22.37;25.65;97017.13;5041173;28;652;-78
2020/12/12 00:47:56;;;;;;;;;;;;;;;22.74;25.24;97006.53;5040666;28;1918;-78
2020/12/12 00:50:23;;;;;;;;;;;;;;;22.67;25.76;97004.00;5040580;28;838;-78
2020/12/12 00:52:49;;;;;;;;;;;;;;;22.60;25.55;96999.47;5040590;28;812;-78
2020/12/12 00:55:15;;;;;;;;;;;;;;;21.70;26.94;96987.66;5023368;28;912;-78
2020/12/12 00:57:41;;;;;;;;;;;;;;;21.19;27.58;97004.34;5024147;28;1131;-78
2020/12/12 01:00:06;;;;;;;;;;;;;;;21.33;27.46;96996.09;5040740;28;631;-78
2020/12/12 01:02:31;;;;;;;;;;;;;;;21.90;26.91;96983.59;5040151;28;698;-77
2020/12/12 01:04:57;;;;;;;;;;;;;;;22.23;26.26;96990.25;5040453;28;1113;-77
2020/12/12 01:07:23;;;;;;;;;;;;;;;22.30;26.14;96984.25;5040523;28;1907;-77
2020/12/12 01:09:48;;;;;;;;;;;;;;;22.75;25.58;96991.09;5040340;28;841;-77
2020/12/12 01:12:15;;;;;;;;;;;;;;;22.64;25.67;96985.13;5041018;28;670;-78
2020/12/12 01:14:41;;;;;;;;;;;;;;;21.66;26.97;96981.41;5040645;28;698;-78
2020/12/12 01:17:06;;;;;;;;;;;;;;;21.62;27.28;96986.41;5040375;28;707;-77
2020/12/12 01:19:32;;;;;;;;;;;;;;;21.13;27.75;96984.38;5040033;28;850;-78
2020/12/12 01:21:57;;;;;;;;;;;;;;;22.18;26.24;96968.22;5040690;28;903;-78
2020/12/12 01:24:22;;;;;;;;;;;;;;;22.34;26.05;96967.09;5040479;28;1030;-77
2020/12/12 01:26:48;;;;;;;;;;;;;;;22.71;25.51;96956.44;5040854;28;1963;-78
2020/12/12 01:29:14;;;;;;;;;;;;;;;22.59;25.49;96960.25;5040317;28;954;-78
2020/12/12 01:31:40;;;;;;;;;;;;;;;21.48;27.26;96965.16;5041058;28;921;-78
2020/12/12 01:34:05;;;;;;;;;;;;;;;21.64;27.02;96949.91;5039816;28;923;-77
2020/12/12 01:36:31;;;;;;;;;;;;;;;21.71;26.78;96946.78;5039940;28;881;-78
2020/12/12 01:38:57;;;;;;;;;;;;;;;21.58;27.63;96960.28;5039817;28;965;-78
2020/12/12 01:41:22;;;;;;;;;;;;;;;22.15;26.65;96957.81;5044247;28;629;-78
2020/12/12 01:43:49;;;;;;;;;;;;;;;22.34;26.03;96952.91;5043968;28;627;-77
2020/12/12 01:46:14;;;;;;;;;;;;;;;22.71;25.55;96950.75;5043472;28;1902;-78
2020/12/12 01:48:40;;;;;;;;;;;;;;;22.45;26.00;96949.59;5043448;28;1098;-79
2020/12/12 01:51:05;;;;;;;;;;;;;;;21.56;26.80;96931.69;5027464;28;913;-79
2020/12/12 01:53:30;;;;;;;;;;;;;;;21.66;26.92;96943.78;5042791;28;857;-78
2020/12/12 01:55:56;;;;;;;;;;;;;;;21.70;26.99;96933.88;5044212;28;603;-78
2020/12/12 01:58:21;;;;;;;;;;;;;;;21.72;27.17;96934.22;5042903;28;650;-77
2020/12/12 02:00:47;;;;;;;;;;;;;;;22.20;26.37;96934.50;5044200;28;679;-78
2020/12/12 02:03:12;;;;;;;;;;;;;;;22.48;25.81;96926.72;5043195;28;997;-77
2020/12/12 02:05:38;;;;;;;;;;;;;;;22.54;25.90;96929.72;5043653;28;1965;-78
2020/12/12 02:08:08;;;;;;;;;;;;;;;22.61;25.72;96918.03;5043053;28;893;-78
2020/12/12 02:10:34;;;;;;;;;;;;;;;21.89;26.60;96928.22;5044289;28;603;-79
2020/12/12 02:13:00;;;;;;;;;;;;;;;21.56;27.14;96921.16;5043499;28;655;-78
2020/12/12 02:15:25;;;;;;;;;;;;;;;21.95;26.70;96923.50;5042950;28;690;-78
2020/12/12 02:17:50;;;;;;;;;;;;;;;22.31;26.05;96914.97;5043311;28;911;-78
2020/12/12 02:20:16;;;;;;;;;;;;;;;22.62;25.87;96917.53;5043322;28;896;-78
2020/12/12 02:22:41;;;;;;;;;;;;;;;22.60;25.58;96913.63;5043460;28;1050;-78
2020/12/12 02:25:07;;;;;;;;;;;;;;;22.77;25.30;96911.97;5043230;28;602;-78
2020/12/12 02:27:32;;;;;;;;;;;;;;;22.04;26.21;96903.66;5043861;28;1887;-77
2020/12/12 02:29:58;;;;;;;;;;;;;;;21.51;26.87;96901.19;5042501;28;994;-78
2020/12/12 02:32:23;;;;;;;;;;;;;;;21.73;26.65;96898.19;5043221;28;1090;-77
2020/12/12 02:34:49;;;;;;;;;;;;;;;22.05;26.61;96905.22;5042664;28;872;-78
2020/12/12 02:37:14;;;;;;;;;;;;;;;22.53;25.90;96899.78;5042675;28;862;-78
2020/12/12 02:39:39;;;;;;;;;;;;;;;22.64;25.82;96894.41;5042490;28;631;-77
2020/12/12 02:42:05;;;;;;;;;;;;;;;22.41;25.61;96897.94;5042071;28;865;-79
2020/12/12 02:44:30;;;;;;;;;;;;;;;21.73;26.93;96896.13;5041837;28;845;-77
2020/12/12 02:46:56;;;;;;;;;;;;;;;21.67;26.88;96889.53;5043055;28;1959;-78
2020/12/12 02:49:21;;;;;;;;;;;;;;;21.75;27.26;96892.81;5042397;28;889;-77
2020/12/12 02:51:47;;;;;;;;;;;;;;;22.39;26.09;96889.13;5041433;28;847;-77
2020/12/12 02:54:12;;;;;;;;;;;;;;;22.60;25.77;96888.09;5042685;28;657;-78
2020/12/12 02:56:38;;;;;;;;;;;;;;;22.69;25.38;96885.25;5042403;28;669;-77
2020/12/12 02:59:03;;;;;;;;;;;;;;;22.36;25.75;96885.97;5041333;28;946;-78
2020/12/12 03:01:29;;;;;;;;;;;;;;;21.57;27.18;96883.09;5042443;28;983;-78
2020/12/12 03:03:54;;;;;;;;;;;;;;;21.76;26.70;96878.22;5041574;28;825;-77
2020/12/12 03:06:19;;;;;;;;;;;;;;;21.69;27.03;96883.41;5042838;28;1968;-77
2020/12/12 03:08:45;;;;;;;;;;;;;;;21.99;26.54;96881.63;5042236;28;710;-79
2020/12/12 03:11:11;;;;;;;;;;;;;;;22.64;25.93;96888.72;5043258;28;670;-78
2020/12/12 03:13:36;;;;;;;;;;;;;;;22.77;25.18;96875.09;5024926;28;640;-77
2020/12/12 03:16:02;;;;;;;;;;;;;;;22.58;25.92;96884.94;5042547;28;1068;-78
2020/12/12 03:18:28;;;;;;;;;;;;;;;21.79;26.85;96905.56;5041627;28;895;-77
2020/12/12 03:20:53;;;;;;;;;;;;;;;21.50;27.20;96874.91;5041855;28;1012;-77
2020/12/12 03:23:19;;;;;;;;;;;;;;;21.38;27.59;96875.84;5042046;28;663;-78
2020/12/12 03:25:44;;;;;;;;;;;;;;;21.67;27.16;96869.72;5042495;28;1968;-78
2020/12/12 03:28:10;;;;;;;;;;;;;;;21.80;26.99;96855.38;5041865;28;970;-78
2020/12/12 03:30:35;;;;;;;;;;;;;;;22.30;26.04;96864.44;5042281;28;983;-78
2020/12/12 03:33:01;;;;;;;;;;;;;;;22.64;25.59;96860.38;5041023;28;900;-77
2020/12/12 03:35:28;;;;;;;;;;;;;;;22.77;25.35;96863.75;5041818;28;701;-78
2020/12/12 03:37:54;;;;;;;;;;;;;;;21.89;26.72;96863.09;5042081;28;678;-78
2020/12/12 03:40:22;;;;;;;;;;;;;;;21.26;27.50;96865.44;5041539;28;687;-78
2020/12/12 03:42:48;;;;;;;;;;;;;;;21.63;26.96;96866.25;5041820;28;653;-78
2020/12/12 03:45:13;;;;;;;;;;;;;;;22.11;26.81;96863.69;5040814;28;890;-78
2020/12/12 03:47:39;;;;;;;;;;;;;;;22.52;26.16;96869.88;5041845;28;1899;-78
2020/12/12 03:50:04;;;;;;;;;;;;;;;22.54;25.86;96867.34;5041254;28;1208;-78
2020/12/12 03:52:30;;;;;;;;;;;;;;;22.67;25.75;96867.91;5042285;28;678;-78
2020/12/12 03:54:55;;;;;;;;;;;;;;;21.94;26.67;96868.13;5041572;28;630;-78
2020/12/12 03:57:21;;;;;;;;;;;;;;;21.91;26.57;96866.22;5041866;28;587;-77
2020/12/12 03:59:46;;;;;;;;;;;;;;;21.54;27.10;96860.59;5040455;28;890;-78
2020/12/12 04:02:12;;;;;;;;;;;;;;;21.42;27.30;96864.38;5041972;28;923;-78
2020/12/12 04:04:37;;;;;;;;;;;;;;;22.02;26.80;96858.00;5023004;28;1121;-78
2020/12/12 04:07:02;;;;;;;;;;;;;;;22.56;25.89;96859.94;5041635;28;1975;-78
2020/12/12 04:09:28;;;;;;;;;;;;;;;22.55;25.98;96857.56;5041285;28;619;-78
2020/12/12 04:11:53;;;;;;;;;;;;;;;22.75;25.59;96849.28;5041609;28;686;-78
2020/12/12 04:14:19;;;;;;;;;;;;;;;22.57;25.79;96855.03;5040886;28;894;-78
2020/12/12 04:16:44;;;;;;;;;;;;;;;21.81;26.68;96840.78;5041020;28;828;-79
2020/12/12 04:19:10;;;;;;;;;;;;;;;21.82;26.57;96853.66;5041175;28;1063;-78
2020/12/12 04:21:35;;;;;;;;;;;;;;;21.45;27.27;96847.25;5008753;28;1147;-78
2020/12/12 04:24:01;;;;;;;;;;;;;;;21.77;27.57;96839.34;5041124;28;630;-78
2020/12/12 04:26:26;;;;;;;;;;;;;;;22.45;26.20;96841.88;5041498;28;1969;-78
2020/12/12 04:28:52;;;;;;;;;;;;;;;22.53;25.84;96849.53;5031252;28;1098;-77
2020/12/12 04:31:17;;;;;;;;;;;;;;;22.77;25.55;96848.81;5031952;28;1349;-78
2020/12/12 04:33:42;;;;;;;;;;;;;;;22.82;25.25;96837.59;5025419;28;1179;-78
2020/12/12 04:36:08;;;;;;;;;;;;;;;21.90;26.88;96842.00;5025132;28;1099;-77
2020/12/12 04:38:36;;;;;;;;;;;;;;;21.45;27.08;96846.44;5040481;28;635;-77
2020/12/12 04:41:01;;;;;;;;;;;;;;;21.63;27.37;96834.34;5041527;28;647;-78
2020/12/12 04:43:27;;;;;;;;;;;;;;;21.54;27.50;96833.06;5039202;28;1118;-78
2020/12/12 04:45:52;;;;;;;;;;;;;;;22.25;26.62;96840.38;5040815;28;1969;-78
2020/12/12 04:48:18;;;;;;;;;;;;;;;22.61;25.87;96838.66;5039538;28;927;-78
2020/12/12 04:50:43;;;;;;;;;;;;;;;22.66;25.80;96846.50;5040325;28;837;-79
2020/12/12 04:53:12;;;;;;;;;;;;;;;22.79;25.78;96844.19;5039782;28;620;-78
2020/12/12 04:55:41;;;;;;;;;;;;;;;22.83;25.74;96836.31;5041601;28;719;-78
2020/12/12 04:58:06;;;;;;;;;;;;;;;21.90;26.82;96837.13;5039707;28;879;-78
2020/12/12 05:00:32;;;;;;;;;;;;;;;21.76;27.32;96830.09;5040036;28;923;-78
2020/12/12 05:02:57;;;;;;;;;;;;;;;21.94;26.91;96825.63;5040078;28;966;-78
2020/12/12 05:05:23;;;;;;;;;;;;;;;21.81;27.01;96837.94;5040555;28;1084;-79
2020/12/12 05:07:48;;;;;;;;;;;;;;;21.94;27.35;96828.47;5039585;28;1906;-78
2020/12/12 05:10:14;;;;;;;;;;;;;;;22.40;26.57;96834.00;5039787;28;793;-78
2020/12/12 05:12:39;;;;;;;;;;;;;;;22.53;26.21;96826.06;5040405;28;1455;-78
2020/12/12 05:15:05;;;;;;;;;;;;;;;22.60;26.05;96820.06;5039287;28;979;-79
2020/12/12 05:17:30;;;;;;;;;;;;;;;21.87;27.06;96832.41;5040254;28;893;-78
2020/12/12 05:19:57;;;;;;;;;;;;;;;21.29;27.61;96822.81;5040484;28;932;-78
2020/12/12 05:22:23;;;;;;;;;;;;;;;21.55;27.66;96816.88;5040283;28;619;-78
2020/12/12 05:24:49;;;;;;;;;;;;;;;21.71;27.60;96825.06;5039804;28;718;-78
2020/12/12 05:27:14;;;;;;;;;;;;;;;22.31;26.43;96821.44;5039990;28;1902;-79
2020/12/12 05:29:40;;;;;;;;;;;;;;;22.51;26.38;96825.78;5040028;28;923;-79
2020/12/12 05:32:05;;;;;;;;;;;;;;;22.71;25.86;96820.31;5041398;28;937;-80
2020/12/12 05:34:31;;;;;;;;;;;;;;;22.67;26.01;96825.38;5041160;28;988;-81
2020/12/12 05:36:56;;;;;;;;;;;;;;;21.88;27.08;96816.22;5041792;28;690;-80
2020/12/12 05:39:22;;;;;;;;;;;;;;;21.71;27.22;96819.41;5041118;28;674;-80
2020/12/12 05:41:47;;;;;;;;;;;;;;;21.65;27.15;96815.59;5041944;28;662;-80
2020/12/12 05:44:13;;;;;;;;;;;;;;;21.96;27.49;96814.59;5041036;28;639;-81
2020/12/12 05:46:39;;;;;;;;;;;;;;;22.32;26.53;96817.34;5025128;28;1970;-79
2020/12/12 05:49:04;;;;;;;;;;;;;;;22.67;26.36;96808.38;5040662;28;927;-79
2020/12/12 05:51:30;;;;;;;;;;;;;;;22.59;26.23;96812.84;5042659;28;901;-79
2020/12/12 05:53:55;;;;;;;;;;;;;;;21.85;27.23;96807.38;5024054;28;890;-81
2020/12/12 05:56:24;;;;;;;;;;;;;;;21.70;27.25;96806.47;5041605;28;936;-80
2020/12/12 05:58:50;;;;;;;;;;;;;;;21.40;27.38;96813.09;5040666;28;663;-80
2020/12/12 06:01:17;;;;;;;;;;;;;;;22.00;27.61;96812.41;5040998;28;866;-80
2020/12/12 06:03:49;;;;;;;;;;;;;;;22.51;26.25;96805.94;5023980;28;878;-80
2020/12/12 06:06:15;;;;;;;;;;;;;;;22.77;26.04;96812.72;5042023;28;1875;-81
2020/12/12 06:08:41;;;;;;;;;;;;;;;22.81;25.87;96813.31;5040852;28;650;-80
2020/12/12 06:11:07;;;;;;;;;;;;;;;22.15;26.79;96806.88;5042436;28;663;-80
2020/12/12 06:13:37;;;;;;;;;;;;;;;21.55;27.77;96814.03;5040069;28;1049;-81
2020/12/12 06:16:03;;;;;;;;;;;;;;;21.12;27.99;96815.91;5041945;28;889;-80
2020/12/12 06:18:41;;;;;;;;;;;;;;;21.31;28.54;96814.69;5039982;28;912;-81
2020/12/12 06:21:08;;;;;;;;;;;;;;;22.19;27.15;96813.16;5042154;28;663;-81
2020/12/12 06:23:37;;;;;;;;;;;;;;;22.44;26.42;96807.06;5040367;28;638;-80
2020/12/12 06:26:03;;;;;;;;;;;;;;;22.57;26.19;96804.00;5042063;28;1891;-80
2020/12/12 06:28:28;;;;;;;;;;;;;;;22.43;26.09;96801.88;5043680;28;1213;-80
2020/12/12 06:30:57;;;;;;;;;;;;;;;21.85;27.26;96801.72;5044624;28;1226;-80
2020/12/12 06:33:23;;;;;;;;;;;;;;;21.49;27.63;96805.41;5043316;28;805;-80
2020/12/12 06:35:48;;;;;;;;;;;;;;;21.57;27.60;96803.06;5044764;28;822;-80
2020/12/12 06:38:17;;;;;;;;;;;;;;;21.88;27.92;96804.88;5044574;28;627;-81
2020/12/12 06:40:42;;;;;;;;;;;;;;;22.41;26.63;96802.34;5045333;28;850;-79
2020/12/12 06:43:27;;;;;;;;;;;;;;;22.60;26.30;96803.84;5043637;28;955;-80
2020/12/12 06:45:52;;;;;;;;;;;;;;;22.54;26.38;96799.31;5044541;28;1970;-80
2020/12/12 06:48:24;;;;;;;;;;;;;;;22.74;26.16;96808.03;5043595;28;662;-80
2020/12/12 06:50:50;;;;;;;;;;;;;;;22.01;26.77;96800.56;5044805;28;791;-80
2020/12/12 06:53:16;;;;;;;;;;;;;;;21.46;27.94;96803.53;5042816;28;878;-80
2020/12/12 06:55:41;;;;;;;;;;;;;;;21.71;27.42;96808.06;5044154;28;902;-80
2020/12/12 06:58:21;;;;;;;;;;;;;;;21.46;27.37;96809.19;5042834;28;902;-80
2020/12/12 07:00:46;;;;;;;;;;;;;;;21.94;27.64;96802.97;5044065;28;845;-80
2020/12/12 07:03:12;;;;;;;;;;;;;;;22.60;26.41;96808.72;5043631;28;901;-80
2020/12/12 07:05:37;;;;;;;;;;;;;;;22.73;26.04;96809.25;5044548;28;1288;-80
2020/12/12 07:08:04;;;;;;;;;;;;;;;22.62;26.05;96806.19;5043484;28;1883;-81
2020/12/12 07:10:30;;;;;;;;;;;;;;;21.75;27.38;96797.34;5044795;28;662;-80
2020/12/12 07:12:55;;;;;;;;;;;;;;;21.29;27.93;96797.38;5026811;28;950;-81
2020/12/12 07:15:21;;;;;;;;;;;;;;;21.20;28.01;96803.03;5010519;28;884;-81
2020/12/12 07:17:46;;;;;;;;;;;;;;;22.04;27.44;96801.69;5043153;28;938;-81
2020/12/12 07:20:12;;;;;;;;;;;;;;;22.42;26.60;96794.63;5044023;28;667;-80
2020/12/12 07:22:38;;;;;;;;;;;;;;;22.68;26.20;96787.25;5043712;28;1319;-80
2020/12/12 07:25:05;;;;;;;;;;;;;;;22.56;26.25;96788.28;5043166;28;833;-80
2020/12/12 07:27:31;;;;;;;;;;;;;;;22.22;26.51;96784.63;5043413;28;1965;-80
2020/12/12 07:29:56;;;;;;;;;;;;;;;21.75;27.23;96786.03;5042799;28;1006;-80
2020/12/12 07:32:22;;;;;;;;;;;;;;;21.48;27.56;96786.06;5043488;28;970;-81
2020/12/12 07:34:47;;;;;;;;;;;;;;;21.92;27.50;96782.84;5043142;28;626;-80
2020/12/12 07:37:13;;;;;;;;;;;;;;;22.25;26.81;96778.03;5044568;28;638;-80
2020/12/12 07:39:39;;;;;;;;;;;;;;;22.60;26.16;96786.06;5042359;28;858;-80
2020/12/12 07:42:05;;;;;;;;;;;;;;;22.73;25.91;96782.97;5044183;28;790;-81
2020/12/12 07:44:34;;;;;;;;;;;;;;;22.81;26.04;96779.28;5042642;28;868;-80
2020/12/12 07:47:03;;;;;;;;;;;;;;;22.25;26.28;96778.03;5043154;28;1886;-80
2020/12/12 07:49:30;;;;;;;;;;;;;;;21.94;26.84;96774.66;5042514;28;665;-80
2020/12/12 07:52:02;;;;;;;;;;;;;;;21.52;27.48;96778.22;5044022;28;654;-80
2020/12/12 07:55:05;;;;;;;;;;;;;;;21.75;28.11;96769.03;5025626;28;920;-80
2020/12/12 07:57:33;;;;;;;;;;;;;;;22.49;26.65;96775.25;5043327;28;860;-80
2020/12/12 08:00:09;;;;;;;;;;;;;;;22.65;26.34;96771.22;5009480;28;1218;-81
2020/12/12 08:02:37;;;;;;;;;;;;;;;22.53;26.03;96775.03;5036713;28;1178;-78
2020/12/12 08:05:03;;;;;;;;;;;;;;;21.74;27.26;96773.13;5039240;28;1226;-79
2020/12/12 08:07:29;;;;;;;;;;;;;;;21.61;27.35;96764.06;5043252;28;1879;-80
2020/12/12 08:09:55;;;;;;;;;;;;;;;21.33;27.71;96761.25;5042184;28;1052;-81
2020/12/12 08:12:29;;;;;;;;;;;;;;;22.37;26.52;96762.06;5043298;28;835;-80
2020/12/12 08:14:54;;;;;;;;;;;;;;;22.53;26.33;96769.38;5025554;28;920;-80
2020/12/12 08:17:20;;;;;;;;;;;;;;;22.79;26.29;96764.78;5026227;28;953;-80
2020/12/12 08:19:46;;;;;;;;;;;;;;;22.34;26.46;96769.50;5041480;28;944;-80
2020/12/12 08:22:14;;;;;;;;;;;;;;;21.55;27.61;96771.59;5043357;28;686;-80
2020/12/12 08:24:42;;;;;;;;;;;;;;;21.37;27.68;96763.13;5041957;28;1070;-81
2020/12/12 08:27:11;;;;;;;;;;;;;;;21.94;27.90;96769.78;5042395;28;1898;-81
2020/12/12 08:29:55;;;;;;;;;;;;;;;22.17;26.96;96756.97;5042358;28;1116;-80
2020/12/12 08:32:31;;;;;;;;;;;;;;;22.73;26.01;96758.22;5025861;28;1075;-81
2020/12/12 08:35:08;;;;;;;;;;;;;;;22.65;26.14;96757.03;5041403;28;833;-80
2020/12/12 08:37:34;;;;;;;;;;;;;;;22.41;26.25;96756.22;5026495;28;706;-81
2020/12/12 08:40:06;;;;;;;;;;;;;;;21.82;27.11;96751.72;5041154;28;1012;-80
2020/12/12 08:42:32;;;;;;;;;;;;;;;21.36;27.37;96742.56;5041789;28;931;-80
2020/12/12 08:45:10;;;;;;;;;;;;;;;21.55;27.50;96743.28;5041278;28;806;-80
2020/12/12 08:47:36;;;;;;;;;;;;;;;22.20;27.24;96741.06;5042989;28;1914;-80
2020/12/12 08:50:01;;;;;;;;;;;;;;;22.52;26.51;96728.91;5041006;28;918;-80
2020/12/12 08:52:27;;;;;;;;;;;;;;;22.60;26.49;96724.47;5043271;28;606;-81
2020/12/12 08:54:59;;;;;;;;;;;;;;;22.72;25.90;96716.97;5024552;28;1274;-81
2020/12/12 08:57:25;;;;;;;;;;;;;;;22.24;26.75;96719.78;5042435;28;876;-80
2020/12/12 08:59:57;;;;;;;;;;;;;;;21.51;27.55;96711.56;5041006;28;859;-81
2020/12/12 09:02:22;;;;;;;;;;;;;;;21.78;27.18;96708.63;5042502;28;687;-80
2020/12/12 09:05:04;;;;;;;;;;;;;;;21.61;27.72;96701.78;5041667;28;703;-81
2020/12/12 09:07:29;;;;;;;;;;;;;;;21.84;27.82;96688.94;5042405;28;1898;-80
2020/12/12 09:10:05;;;;;;;;;;;;;;;22.27;26.82;96696.16;5041082;28;920;-81
2020/12/12 09:12:41;;;;;;;;;;;;;;;22.78;25.95;96683.06;5041686;28;819;-81
2020/12/12 09:15:07;;;;;;;;;;;;;;;22.92;25.85;96675.88;5024088;28;1108;-81
2020/12/12 09:17:32;;;;;;;;;;;;;;;22.58;25.86;96675.16;5042068;28;853;-80
2020/12/12 09:19:58;;;;;;;;;;;;;;;21.74;27.48;96676.88;5040907;28;906;-80
2020/12/12 09:22:23;;;;;;;;;;;;;;;21.96;27.05;96670.16;5041840;28;789;-81
2020/12/12 09:24:48;;;;;;;;;;;;;;;21.58;27.49;96668.75;5041351;28;694;-81
2020/12/12 09:27:14;;;;;;;;;;;;;;;21.70;27.66;96662.09;5025596;28;1954;-81
2020/12/12 09:29:39;;;;;;;;;;;;;;;22.25;27.09;96653.34;5040510;28;983;-81
2020/12/12 09:32:05;;;;;;;;;;;;;;;22.47;26.60;96657.94;5041566;28;924;-81
2020/12/12 09:34:30;;;;;;;;;;;;;;;22.66;26.07;96656.53;5041587;28;963;-80
2020/12/12 09:36:56;;;;;;;;;;;;;;;22.63;26.06;96649.75;5041490;28;925;-80
2020/12/12 09:39:21;;;;;;;;;;;;;;;22.00;26.91;96659.44;5041452;28;674;-80
2020/12/12 09:41:46;;;;;;;;;;;;;;;21.88;27.21;96651.97;5042120;28;877;-80
2020/12/12 09:44:12;;;;;;;;;;;;;;;21.47;27.74;96657.94;5040554;28;858;-80
2020/12/12 09:46:37;;;;;;;;;;;;;;;21.46;28.23;96647.88;5042510;28;1911;-80
2020/12/12 09:49:03;;;;;;;;;;;;;;;22.10;27.25;96643.97;5040686;28;809;-80
2020/12/12 09:51:28;;;;;;;;;;;;;;;22.52;26.40;96643.09;5041319;28;638;-79
2020/12/12 09:53:54;;;;;;;;;;;;;;;22.81;26.02;96637.50;5040474;28;657;-79
2020/12/12 09:56:19;;;;;;;;;;;;;;;22.78;26.05;96627.13;5041150;28;822;-79
2020/12/12 09:58:45;;;;;;;;;;;;;;;21.68;27.32;96621.38;5040240;28;862;-79
2020/12/12 10:01:11;;;;;;;;;;;;;;;21.68;27.43;96616.50;5043373;28;901;-79
2020/12/12 10:03:37;;;;;;;;;;;;;;;21.59;27.42;96610.88;5043410;28;1010;-79
2020/12/12 10:06:05;;;;;;;;;;;;;;;22.04;27.48;96614.75;5044732;28;1977;-80
2020/12/12 10:08:30;;;;;;;;;;;;;;;22.55;26.50;96602.44;5026520;28;1061;-78
2020/12/12 10:10:56;;;;;;;;;;;;;;;22.71;26.26;96599.16;5043976;28;1201;-79
2020/12/12 10:13:21;;;;;;;;;;;;;;;22.68;26.28;96607.84;5043202;28;1022;-79
2020/12/12 10:15:47;;;;;;;;;;;;;;;22.28;26.54;96607.06;5027592;28;654;-79
2020/12/12 10:18:13;;;;;;;;;;;;;;;21.48;27.47;96591.59;5043120;28;746;-79
2020/12/12 10:20:38;;;;;;;;;;;;;;;21.73;27.34;96590.38;5044515;28;644;-79
2020/12/12 10:23:04;;;;;;;;;;;;;;;21.78;28.14;96588.94;5043205;28;975;-79
2020/12/12 10:25:29;;;;;;;;;;;;;;;22.43;26.82;96594.97;5043545;28;912;-79
2020/12/12 10:27:55;;;;;;;;;;;;;;;22.61;26.49;96589.94;5026317;28;1898;-79
2020/12/12 10:30:20;;;;;;;;;;;;;;;22.87;26.07;96584.50;5043269;28;1026;-79
2020/12/12 10:32:46;;;;;;;;;;;;;;;22.17;26.85;96589.81;5043340;28;809;-79
2020/12/12 10:35:11;;;;;;;;;;;;;;;21.71;27.35;96586.44;5043847;28;698;-79
2020/12/12 10:37:37;;;;;;;;;;;;;;;21.51;27.94;96589.88;5043764;28;874;-79
2020/12/12 10:42:41;;;;;;;;;;;;;;;22.08;27.23;96587.03;5043198;28;678;-78
2020/12/12 10:45:07;;;;;;;;;;;;;;;22.38;26.93;96587.13;5026147;28;1128;-79
2020/12/12 10:47:32;;;;;;;;;;;;;;;22.65;26.52;96581.25;5026895;28;1906;-79
2020/12/12 10:49:58;;;;;;;;;;;;;;;22.74;26.18;96569.84;5026553;28;1208;-79
2020/12/12 10:52:23;;;;;;;;;;;;;;;22.14;26.57;96573.00;5042670;28;1028;-79
2020/12/12 10:54:50;;;;;;;;;;;;;;;21.80;27.06;96564.53;5041942;28;982;-79
2020/12/12 10:57:16;;;;;;;;;;;;;;;21.73;27.01;96562.06;5026020;28;962;-79
2020/12/12 10:59:44;;;;;;;;;;;;;;;21.42;27.66;96558.78;5042284;28;846;-79
2020/12/12 11:02:10;;;;;;;;;;;;;;;22.09;27.31;96560.25;5043279;28;646;-79
2020/12/12 11:04:36;;;;;;;;;;;;;;;22.38;26.42;96565.25;5043274;28;678;-79
2020/12/12 11:07:02;;;;;;;;;;;;;;;22.48;26.40;96568.78;5043511;28;1902;-79
2020/12/12 11:09:27;;;;;;;;;;;;;;;22.53;26.29;96559.59;5041690;28;962;-79
2020/12/12 11:11:53;;;;;;;;;;;;;;;22.15;26.66;96552.69;5043216;28;964;-79
2020/12/12 11:14:18;;;;;;;;;;;;;;;21.79;26.89;96539.53;5041710;28;774;-79
2020/12/12 11:16:44;;;;;;;;;;;;;;;21.51;27.58;96542.53;5042760;28;792;-79
2020/12/12 11:19:09;;;;;;;;;;;;;;;21.96;27.72;96539.88;5042843;28;662;-79
2020/12/12 11:21:35;;;;;;;;;;;;;;;22.22;26.68;96538.13;5026110;28;1055;-79
2020/12/12 11:24:00;;;;;;;;;;;;;;;22.56;26.25;96535.97;5041552;28;858;-79
2020/12/12 11:26:26;;;;;;;;;;;;;;;22.82;25.89;96542.63;5043618;28;1950;-79
2020/12/12 11:28:51;;;;;;;;;;;;;;;22.39;26.41;96546.22;5041871;28;1157;-79
2020/12/12 11:31:17;;;;;;;;;;;;;;;21.95;26.85;96539.09;5043313;28;676;-79
2020/12/12 11:33:45;;;;;;;;;;;;;;;21.17;27.59;96545.78;5042158;28;974;-79
2020/12/12 11:36:26;;;;;;;;;;;;;;;21.23;27.69;96533.34;5042457;28;897;-79
2020/12/12 11:39:03;;;;;;;;;;;;;;;21.93;27.27;96523.88;5025161;28;627;-78
2020/12/12 11:46:56;;;;;;;;;;;;;;;22.84;25.70;96527.97;5042856;28;1977;-79
2020/12/12 11:49:23;;;;;;;;;;;;;;;22.08;26.60;96524.72;5042145;28;952;-79
2020/12/12 11:51:48;;;;;;;;;;;;;;;21.97;26.89;96518.81;5042187;28;854;-79
2020/12/12 11:54:14;;;;;;;;;;;;;;;21.55;27.18;96528.19;5041717;28;878;-79
2020/12/12 11:56:40;;;;;;;;;;;;;;;21.39;27.56;96525.75;5042594;28;730;-79
2020/12/12 11:59:06;;;;;;;;;;;;;;;21.90;27.54;96525.63;5041144;28;877;-79
2020/12/12 12:01:31;;;;;;;;;;;;;;;22.27;26.81;96520.47;5024840;28;962;-79
2020/12/12 12:03:57;;;;;;;;;;;;;;;22.56;26.22;96519.75;5041394;28;867;-79
2020/12/12 12:06:22;;;;;;;;;;;;;;;22.71;26.22;96519.75;5041391;28;1910;-79
2020/12/12 12:11:28;;;;;;;;;;;;;;;21.80;27.09;96513.56;5041706;28;674;-79
2020/12/12 12:13:54;;;;;;;;;;;;;;;21.20;27.98;96531.50;5024267;28;840;-79
2020/12/12 12:16:19;;;;;;;;;;;;;;;21.66;27.28;96522.81;5042360;28;694;-79
2020/12/12 12:18:46;;;;;;;;;;;;;;;22.18;27.26;96531.13;5041458;28;878;-79
2020/12/12 12:21:11;;;;;;;;;;;;;;;22.53;26.36;96525.59;5025089;28;908;-79
2020/12/12 12:23:36;;;;;;;;;;;;;;;22.56;26.09;96527.47;5040230;28;1000;-79
2020/12/12 12:26:02;;;;;;;;;;;;;;;22.53;26.30;96528.44;5041939;28;1969;-78
2020/12/12 12:28:27;;;;;;;;;;;;;;;21.66;27.34;96522.81;5041118;28;1117;-79
2020/12/12 12:30:53;;;;;;;;;;;;;;;21.81;27.11;96512.31;5042559;28;666;-79
2020/12/12 12:33:19;;;;;;;;;;;;;;;21.76;27.20;96524.31;5041276;28;630;-78
2020/12/12 12:35:44;;;;;;;;;;;;;;;21.11;28.62;96517.38;5041018;28;928;-79
2020/12/12 12:38:10;;;;;;;;;;;;;;;21.97;27.70;96513.16;5023735;28;902;-78
2020/12/12 12:40:35;;;;;;;;;;;;;;;22.50;26.61;96515.25;5040686;28;957;-79
2020/12/12 12:43:01;;;;;;;;;;;;;;;22.77;26.23;96517.78;5040793;28;687;-79
2020/12/12 12:45:26;;;;;;;;;;;;;;;22.88;25.86;96523.69;5041064;28;654;-81
2020/12/12 12:47:52;;;;;;;;;;;;;;;22.25;26.56;96511.69;5041410;28;1906;-79
2020/12/12 12:50:17;;;;;;;;;;;;;;;21.59;27.71;96506.16;5041255;28;974;-79
2020/12/12 12:52:43;;;;;;;;;;;;;;;21.28;28.12;96510.06;5024301;28;922;-79
2020/12/12 12:55:09;;;;;;;;;;;;;;;21.56;28.33;96507.13;5041266;28;945;-79
2020/12/12 12:57:35;;;;;;;;;;;;;;;22.20;26.95;96501.03;5041546;28;611;-78
2020/12/12 13:00:00;;;;;;;;;;;;;;;22.48;26.41;96504.38;5040120;28;841;-79
2020/12/12 13:02:26;;;;;;;;;;;;;;;22.83;26.03;96503.72;5040391;28;902;-78
2020/12/12 13:04:51;;;;;;;;;;;;;;;22.47;26.43;96504.88;5040143;28;1005;-80
2020/12/12 13:07:17;;;;;;;;;;;;;;;21.86;27.07;96496.69;5024051;28;1891;-79
2020/12/12 13:09:42;;;;;;;;;;;;;;;21.69;27.17;96487.84;5040630;28;974;-79
2020/12/12 13:12:08;;;;;;;;;;;;;;;21.71;27.88;96493.84;5041277;28;726;-79